createdAt,value
2019-05-23T00:00:45.646Z,99.90
2019-05-23T00:03:16.387Z,99.90
2019-05-23T00:05:55.450Z,99.90
2019-05-23T00:08:26.586Z,99.90
2019-05-23T00:11:21.487Z,99.90
2019-05-23T00:13:56.624Z,99.90
2019-05-23T00:16:27.140Z,99.90
2019-05-23T00:18:56.732Z,99.90
2019-05-23T00:21:25.256Z,99.90
2019-05-23T00:23:54.339Z,99.90
2019-05-23T00:26:23.372Z,99.90
2019-05-23T00:29:09.002Z,99.90
2019-05-23T00:31:34.693Z,99.90
2019-05-23T00:34:04.133Z,99.90
2019-05-23T00:36:34.104Z,99.90
2019-05-23T00:39:06.981Z,99.90
2019-05-23T00:41:39.499Z,99.90
2019-05-23T00:44:08.400Z,99.90
2019-05-23T00:46:37.414Z,99.90
2019-05-23T00:49:08.723Z,99.90
2019-05-23T00:51:37.606Z,99.90
2019-05-23T00:54:06.483Z,99.90
2019-05-23T00:56:36.674Z,99.90
2019-05-23T00:59:06.240Z,99.90
2019-05-23T01:01:37.881Z,99.90
2019-05-23T01:04:06.113Z,99.90
2019-05-23T01:06:35.525Z,99.90
2019-05-23T01:09:07.351Z,99.90
2019-05-23T01:11:37.273Z,99.90
2019-05-23T01:14:06.408Z,99.90
2019-05-23T01:16:36.580Z,99.90
2019-05-23T01:19:06.873Z,99.90
2019-05-23T01:21:55.544Z,99.90
2019-05-23T01:24:43.866Z,99.90
2019-05-23T01:27:14.455Z,99.90
2019-05-23T01:29:49.626Z,99.90
2019-05-23T01:32:37.881Z,99.90
2019-05-23T01:35:09.215Z,99.90
2019-05-23T01:37:38.727Z,99.90
2019-05-23T01:40:08.136Z,99.90
2019-05-23T01:42:37.812Z,99.90
2019-05-23T01:45:08.456Z,99.90
2019-05-23T01:47:37.013Z,99.90
2019-05-23T01:50:07.023Z,99.90
2019-05-23T01:52:36.921Z,99.90
2019-05-23T01:55:07.359Z,99.90
2019-05-23T01:57:35.848Z,99.90
2019-05-23T02:00:10.950Z,99.90
2019-05-23T02:02:40.590Z,99.90
2019-05-23T02:05:10.036Z,99.90
2019-05-23T02:07:38.591Z,99.90
2019-05-23T02:10:07.981Z,99.90
2019-05-23T02:12:37.390Z,99.90
2019-05-23T02:15:07.302Z,99.90
2019-05-23T02:17:37.004Z,99.90
2019-05-23T02:20:06.232Z,99.90
2019-05-23T02:22:35.734Z,99.90
2019-05-23T02:25:06.571Z,99.90
2019-05-23T02:27:35.369Z,99.90
2019-05-23T02:30:07.359Z,99.90
2019-05-23T02:32:38.677Z,99.90
2019-05-23T02:35:07.478Z,99.90
2019-05-23T02:38:02.108Z,99.90
2019-05-23T02:40:40.073Z,99.90
2019-05-23T02:43:10.873Z,99.90
2019-05-23T02:45:46.666Z,99.90
2019-05-23T02:48:25.319Z,99.90
2019-05-23T02:51:02.595Z,99.90
2019-05-23T02:53:34.770Z,99.90
2019-05-23T02:56:09.511Z,99.90
2019-05-23T02:59:20.153Z,99.90
2019-05-23T03:02:53.859Z,99.90
2019-05-23T03:05:25.562Z,99.90
2019-05-23T03:07:55.974Z,99.90
2019-05-23T03:10:27.071Z,99.90
2019-05-23T03:12:57.943Z,99.90
2019-05-23T03:15:27.963Z,99.90
2019-05-23T03:18:01.983Z,99.90
2019-05-23T03:20:30.588Z,99.90
2019-05-23T03:23:07.822Z,99.90
2019-05-23T03:26:35.522Z,99.90
2019-05-23T03:29:04.281Z,99.90
2019-05-23T03:31:45.879Z,99.90
2019-05-23T03:34:15.605Z,99.90
2019-05-23T03:36:45.801Z,99.90
2019-05-23T03:39:15.760Z,99.90
2019-05-23T03:41:44.958Z,99.90
2019-05-23T03:44:14.646Z,99.90
2019-05-23T03:46:46.361Z,99.90
2019-05-23T03:49:15.655Z,99.90
2019-05-23T03:51:44.979Z,99.90
2019-05-23T03:54:14.446Z,99.90
2019-05-23T03:56:46.124Z,99.90
2019-05-23T03:59:15.133Z,99.90
2019-05-23T04:01:48.274Z,99.90
2019-05-23T04:04:14.658Z,99.90
2019-05-23T04:06:44.525Z,99.90
2019-05-23T04:09:13.396Z,99.90
2019-05-23T04:11:41.787Z,99.90
2019-05-23T04:14:10.379Z,99.90
2019-05-23T04:16:40.166Z,99.90
2019-05-23T04:19:08.835Z,99.90
2019-05-23T04:21:37.214Z,99.90
2019-05-23T04:24:05.877Z,99.90
2019-05-23T04:26:34.372Z,99.90
2019-05-23T04:29:03.128Z,99.90
2019-05-23T04:31:32.656Z,99.90
2019-05-23T04:34:01.994Z,99.90
2019-05-23T04:36:32.390Z,99.90
2019-05-23T04:39:01.684Z,99.90
2019-05-23T04:41:30.596Z,99.90
2019-05-23T04:43:59.384Z,99.90
2019-05-23T04:46:28.305Z,99.90
2019-05-23T04:48:57.779Z,99.90
2019-05-23T04:51:26.400Z,99.90
2019-05-23T04:53:54.977Z,99.90
2019-05-23T04:56:24.703Z,99.90
2019-05-23T04:58:53.200Z,99.90
2019-05-23T05:01:23.878Z,99.90
2019-05-23T05:03:53.388Z,99.90
2019-05-23T05:06:22.058Z,99.90
2019-05-23T05:08:51.767Z,99.90
2019-05-23T05:11:21.426Z,99.90
2019-05-23T05:13:51.987Z,99.90
2019-05-23T05:16:20.460Z,99.90
2019-05-23T05:18:49.059Z,99.90
2019-05-23T05:21:17.709Z,99.90
2019-05-23T05:23:46.282Z,99.90
2019-05-23T05:26:21.740Z,99.90
2019-05-23T05:28:51.185Z,99.90
2019-05-23T05:31:21.337Z,99.90
2019-05-23T05:33:50.154Z,99.90
2019-05-23T05:36:18.544Z,99.90
2019-05-23T05:38:47.319Z,99.90
2019-05-23T05:41:16.499Z,99.90
2019-05-23T05:43:45.697Z,99.90
2019-05-23T05:46:14.767Z,99.90
2019-05-23T05:48:43.345Z,99.90
2019-05-23T05:51:12.333Z,99.90
2019-05-23T05:53:41.190Z,99.90
2019-05-23T05:56:09.709Z,99.90
2019-05-23T05:58:38.172Z,99.90
2019-05-23T06:01:10.327Z,99.90
2019-05-23T06:03:40.485Z,99.90
2019-05-23T06:06:17.018Z,99.90
2019-05-23T06:08:46.475Z,99.90
2019-05-23T06:11:15.563Z,99.90
2019-05-23T06:13:44.827Z,99.90
2019-05-23T06:16:13.492Z,99.90
2019-05-23T06:18:42.180Z,99.90
2019-05-23T06:21:11.759Z,99.90
2019-05-23T06:23:40.763Z,99.90
2019-05-23T06:26:09.738Z,99.90
2019-05-23T06:28:39.603Z,99.90
2019-05-23T06:31:08.411Z,99.90
2019-05-23T06:33:37.408Z,99.90
2019-05-23T06:36:06.616Z,99.90
2019-05-23T06:38:35.163Z,99.90
2019-05-23T06:41:05.151Z,99.90
2019-05-23T06:43:35.359Z,99.90
2019-05-23T06:46:04.441Z,99.90
2019-05-23T06:48:33.790Z,99.90
2019-05-23T06:51:02.177Z,99.90
2019-05-23T06:53:30.751Z,99.90
2019-05-23T06:55:59.230Z,99.90
2019-05-23T06:58:28.389Z,99.90
2019-05-23T07:00:56.855Z,99.90
2019-05-23T07:03:41.678Z,99.90
2019-05-23T07:05:58.266Z,99.90
2019-05-23T07:08:29.542Z,99.90
2019-05-23T07:10:58.135Z,99.90
2019-05-23T07:13:29.072Z,99.90
2019-05-23T07:15:57.819Z,99.90
2019-05-23T07:18:26.677Z,99.90
2019-05-23T07:20:55.740Z,99.90
2019-05-23T07:23:24.253Z,99.90
2019-05-23T07:25:52.750Z,99.90
2019-05-23T07:28:21.330Z,99.90
2019-05-23T07:30:50.393Z,99.90
2019-05-23T07:33:18.823Z,99.90
2019-05-23T07:35:47.309Z,99.90
2019-05-23T07:38:15.984Z,99.90
2019-05-23T07:40:45.250Z,99.90
2019-05-23T07:43:14.132Z,99.90
2019-05-23T07:45:48.644Z,99.90
2019-05-23T07:48:17.533Z,99.90
2019-05-23T07:50:46.003Z,99.90
2019-05-23T07:53:23.189Z,99.90
2019-05-23T07:55:53.519Z,99.90
2019-05-23T07:58:22.011Z,99.90
2019-05-23T08:00:55.795Z,99.90
2019-05-23T08:03:28.642Z,99.90
2019-05-23T08:05:57.124Z,99.90
2019-05-23T08:08:26.740Z,99.90
2019-05-23T08:10:55.303Z,99.90
2019-05-23T08:13:24.741Z,99.90
2019-05-23T08:15:53.510Z,99.90
2019-05-23T08:18:22.080Z,99.90
2019-05-23T08:20:50.549Z,99.90
2019-05-23T08:23:19.175Z,99.90
2019-05-23T08:25:49.590Z,99.90
2019-05-23T08:28:18.864Z,99.90
2019-05-23T08:30:47.494Z,99.90
2019-05-23T08:33:16.097Z,99.90
2019-05-23T08:35:45.025Z,99.90
2019-05-23T08:38:13.915Z,99.90
2019-05-23T08:40:42.907Z,99.90
2019-05-23T08:43:11.529Z,99.90
2019-05-23T08:45:40.189Z,99.90
2019-05-23T08:48:09.365Z,99.90
2019-05-23T08:50:39.627Z,99.90
2019-05-23T08:53:09.316Z,99.90
2019-05-23T08:55:40.210Z,99.90
2019-05-23T08:58:11.382Z,99.90
2019-05-23T09:00:43.262Z,99.90
2019-05-23T09:03:12.175Z,99.90
2019-05-23T09:05:40.759Z,99.90
2019-05-23T09:08:11.049Z,99.90
2019-05-23T09:10:40.386Z,99.90
2019-05-23T09:13:08.908Z,99.90
2019-05-23T09:15:37.625Z,99.90
2019-05-23T09:18:07.360Z,99.90
2019-05-23T09:20:36.718Z,99.90
2019-05-23T09:23:05.331Z,99.90
2019-05-23T09:25:34.525Z,99.90
2019-05-23T09:28:03.343Z,99.90
2019-05-23T09:30:32.926Z,99.90
2019-05-23T09:33:02.533Z,99.90
2019-05-23T09:35:31.718Z,99.90
2019-05-23T09:38:00.122Z,99.90
2019-05-23T09:40:30.464Z,99.90
2019-05-23T09:42:59.436Z,99.90
2019-05-23T09:45:27.795Z,99.90
2019-05-23T09:47:56.170Z,99.90
2019-05-23T09:50:25.016Z,99.90
2019-05-23T09:52:53.592Z,99.90
2019-05-23T09:55:22.804Z,99.90
2019-05-23T09:57:51.760Z,99.90
2019-05-23T10:00:23.164Z,99.90
2019-05-23T10:02:51.823Z,99.90
2019-05-23T10:05:40.189Z,99.90
2019-05-23T10:07:50.877Z,99.90
2019-05-23T10:10:19.606Z,99.90
2019-05-23T10:12:48.168Z,99.90
2019-05-23T10:15:32.542Z,99.90
2019-05-23T10:18:01.275Z,99.90
2019-05-23T10:20:31.496Z,99.90
2019-05-23T10:23:00.033Z,99.90
2019-05-23T10:25:28.486Z,99.90
2019-05-23T10:27:57.466Z,99.90
2019-05-23T10:30:26.047Z,99.90
2019-05-23T10:32:54.570Z,99.90
2019-05-23T10:35:23.430Z,99.90
2019-05-23T10:37:51.854Z,99.90
2019-05-23T10:40:20.719Z,99.90
2019-05-23T10:42:49.096Z,99.90
2019-05-23T10:45:17.787Z,99.10
2019-05-23T10:47:46.155Z,99.60
2019-05-23T10:50:16.150Z,99.10
2019-05-23T10:52:44.989Z,99.90
2019-05-23T10:55:13.468Z,99.90
2019-05-23T10:57:41.833Z,99.40
2019-05-23T11:00:21.323Z,99.30
2019-05-23T11:02:50.123Z,99.10
2019-05-23T11:05:19.255Z,99.90
2019-05-23T11:07:48.341Z,99.90
2019-05-23T11:10:19.215Z,97.80
2019-05-23T11:12:48.282Z,99.00
2019-05-23T11:15:16.943Z,99.90
2019-05-23T11:17:45.628Z,99.90
2019-05-23T11:20:16.771Z,99.90
2019-05-23T11:22:45.489Z,97.90
2019-05-23T11:25:16.751Z,95.20
2019-05-23T11:27:45.824Z,96.10
2019-05-23T11:30:32.353Z,97.80
2019-05-23T11:33:00.943Z,97.40
2019-05-23T11:35:29.516Z,97.20
2019-05-23T11:37:57.985Z,96.00
2019-05-23T11:40:26.921Z,97.10
2019-05-23T11:42:55.418Z,97.90
2019-05-23T11:45:25.704Z,98.00
2019-05-23T11:47:54.569Z,97.50
2019-05-23T11:50:22.967Z,95.00
2019-05-23T11:52:55.705Z,96.50
2019-05-23T11:55:22.635Z,94.40
2019-05-23T11:57:53.534Z,92.90
2019-05-23T12:01:20.636Z,93.60
2019-05-23T12:03:44.803Z,92.20
2019-05-23T12:06:15.316Z,93.10
2019-05-23T12:08:44.033Z,91.30
2019-05-23T12:11:13.264Z,90.80
2019-05-23T12:13:41.909Z,91.40
2019-05-23T12:16:10.446Z,91.60
2019-05-23T12:18:38.936Z,91.20
2019-05-23T12:21:07.302Z,92.70
2019-05-23T12:23:35.819Z,94.30
2019-05-23T12:26:06.016Z,92.00
2019-05-23T12:28:34.482Z,91.10
2019-05-23T12:31:04.131Z,92.60
2019-05-23T12:33:32.656Z,88.70
2019-05-23T12:36:01.047Z,91.10
2019-05-23T12:38:29.612Z,92.80
2019-05-23T12:40:58.304Z,91.20
2019-05-23T12:43:26.773Z,90.90
2019-05-23T12:45:56.966Z,91.50
2019-05-23T12:48:39.020Z,92.60
2019-05-23T12:51:07.778Z,90.60
2019-05-23T12:53:36.375Z,91.20
2019-05-23T12:56:05.367Z,92.50
2019-05-23T12:58:34.540Z,92.60
2019-05-23T13:01:05.937Z,87.70
2019-05-23T13:03:34.809Z,91.00
2019-05-23T13:06:04.379Z,88.70
2019-05-23T13:08:33.062Z,90.40
2019-05-23T13:11:01.416Z,86.90
2019-05-23T13:13:30.361Z,89.20
2019-05-23T13:15:59.073Z,85.70
2019-05-23T13:18:27.920Z,86.80
2019-05-23T13:20:59.171Z,81.80
2019-05-23T13:23:27.140Z,88.90
2019-05-23T13:25:55.620Z,84.40
2019-05-23T13:28:24.297Z,85.00
2019-05-23T13:30:52.829Z,84.50
2019-05-23T13:33:21.505Z,87.10
2019-05-23T13:35:50.628Z,85.00
2019-05-23T13:38:19.346Z,82.80
2019-05-23T13:40:47.678Z,83.00
2019-05-23T13:43:16.121Z,84.00
2019-05-23T13:45:44.943Z,87.30
2019-05-23T13:48:13.329Z,85.50
2019-05-23T13:50:42.245Z,82.00
2019-05-23T13:53:11.897Z,73.30
2019-05-23T13:55:40.257Z,80.50
2019-05-23T13:58:09.054Z,78.90
2019-05-23T14:00:38.139Z,82.30
2019-05-23T14:03:07.556Z,74.50
2019-05-23T14:05:37.006Z,75.50
2019-05-23T14:08:13.141Z,79.10
2019-05-23T14:10:39.003Z,77.40
2019-05-23T14:13:07.913Z,81.00
2019-05-23T14:15:42.508Z,80.50
2019-05-23T14:18:14.760Z,81.00
2019-05-23T14:20:43.593Z,80.80
2019-05-23T14:23:21.156Z,77.50
2019-05-23T14:25:49.866Z,78.90
2019-05-23T14:28:18.632Z,84.50
2019-05-23T14:31:04.032Z,77.40
2019-05-23T14:33:41.204Z,82.70
2019-05-23T14:36:16.630Z,83.80
2019-05-23T14:38:45.809Z,82.50
2019-05-23T14:41:14.208Z,78.50
2019-05-23T14:43:45.592Z,77.30
2019-05-23T14:46:16.236Z,83.20
2019-05-23T14:48:57.634Z,81.50
2019-05-23T14:51:39.709Z,80.50
2019-05-23T14:54:18.309Z,80.90
2019-05-23T14:56:47.013Z,80.20
2019-05-23T14:59:15.715Z,77.80
2019-05-23T15:01:44.685Z,78.30
2019-05-23T15:04:14.318Z,76.40
2019-05-23T15:06:42.903Z,78.30
2019-05-23T15:09:11.272Z,77.80
2019-05-23T15:11:40.251Z,80.10
2019-05-23T15:14:08.785Z,78.50
2019-05-23T15:16:37.366Z,78.40
2019-05-23T15:19:05.962Z,78.80
2019-05-23T15:21:34.445Z,74.30
2019-05-23T15:24:03.236Z,77.00
2019-05-23T15:26:31.732Z,76.30
2019-05-23T15:29:00.144Z,78.30
2019-05-23T15:31:30.540Z,80.20
2019-05-23T15:33:59.017Z,83.80
2019-05-23T15:36:27.472Z,82.70
2019-05-23T15:39:09.127Z,81.20
2019-05-23T15:41:26.423Z,80.60
2019-05-23T15:43:54.859Z,83.70
2019-05-23T15:46:23.426Z,81.20
2019-05-23T15:48:51.903Z,83.50
2019-05-23T15:51:24.904Z,84.60
2019-05-23T15:54:11.838Z,85.10
2019-05-23T15:56:54.059Z,82.20
2019-05-23T15:59:36.608Z,85.20
2019-05-23T16:02:17.752Z,86.20
2019-05-23T16:04:46.324Z,81.70
2019-05-23T16:07:16.512Z,82.00
2019-05-23T16:09:45.699Z,83.50
2019-05-23T16:12:14.622Z,82.20
2019-05-23T16:14:43.693Z,83.60
2019-05-23T16:17:13.088Z,88.20
2019-05-23T16:19:42.198Z,84.50
2019-05-23T16:22:11.310Z,86.60
2019-05-23T16:24:39.756Z,87.40
2019-05-23T16:27:08.464Z,86.50
2019-05-23T16:29:37.759Z,86.30
2019-05-23T16:32:06.385Z,86.50
2019-05-23T16:34:35.441Z,87.20
2019-05-23T16:37:05.606Z,87.40
2019-05-23T16:39:46.879Z,88.50
2019-05-23T16:42:07.055Z,88.60
2019-05-23T16:44:35.524Z,90.10
2019-05-23T16:47:03.978Z,88.00
2019-05-23T16:49:32.519Z,87.40
2019-05-23T16:52:01.082Z,88.80
2019-05-23T16:54:34.488Z,90.30
2019-05-23T16:57:14.095Z,90.70
2019-05-23T16:59:47.745Z,91.20
2019-05-23T17:02:41.723Z,92.50
2019-05-23T17:05:29.703Z,92.50
2019-05-23T17:08:17.977Z,92.40
2019-05-23T17:10:55.076Z,92.30
2019-05-23T17:13:34.319Z,92.10
2019-05-23T17:16:15.379Z,91.40
2019-05-23T17:19:07.035Z,91.80
2019-05-23T17:21:53.776Z,92.90
2019-05-23T17:24:31.202Z,92.20
2019-05-23T17:27:25.246Z,92.10
2019-05-23T17:30:00.944Z,92.70
2019-05-23T17:32:33.097Z,92.60
2019-05-23T17:35:01.733Z,92.10
2019-05-23T17:37:31.347Z,94.10
2019-05-23T17:39:59.853Z,94.20
2019-05-23T17:42:28.345Z,93.40
2019-05-23T17:44:56.873Z,94.40
2019-05-23T17:47:25.513Z,93.60
2019-05-23T17:49:55.358Z,94.40
2019-05-23T17:52:23.860Z,94.90
2019-05-23T17:54:52.985Z,94.20
2019-05-23T17:57:23.304Z,93.40
2019-05-23T17:59:51.895Z,92.90
2019-05-23T18:02:21.871Z,93.30
2019-05-23T18:04:50.604Z,93.10
2019-05-23T18:07:19.521Z,93.30
2019-05-23T18:09:51.268Z,93.70
2019-05-23T18:12:20.561Z,93.80
2019-05-23T18:14:50.344Z,93.40
2019-05-23T18:17:19.590Z,93.60
2019-05-23T18:19:47.960Z,94.00
2019-05-23T18:22:17.876Z,94.60
2019-05-23T18:24:46.933Z,95.10
2019-05-23T18:27:19.168Z,95.30
2019-05-23T18:29:49.725Z,95.60
2019-05-23T18:32:22.303Z,96.40
2019-05-23T18:34:50.811Z,97.80
2019-05-23T18:37:19.292Z,98.30
2019-05-23T18:39:47.788Z,97.40
2019-05-23T18:42:16.496Z,98.90
2019-05-23T18:44:45.199Z,99.90
2019-05-23T18:47:21.505Z,98.80
2019-05-23T18:49:49.962Z,99.20
2019-05-23T18:52:18.955Z,99.30
2019-05-23T18:54:47.872Z,99.00
2019-05-23T18:57:16.382Z,99.20
2019-05-23T18:59:44.893Z,99.80
2019-05-23T19:02:13.888Z,98.30
2019-05-23T19:04:42.675Z,98.80
2019-05-23T19:07:13.168Z,99.10
2019-05-23T19:09:42.120Z,99.10
2019-05-23T19:12:11.099Z,99.10
2019-05-23T19:14:40.638Z,98.40
2019-05-23T19:17:09.242Z,94.90
2019-05-23T19:19:38.484Z,97.60
2019-05-23T19:22:07.380Z,98.40
2019-05-23T19:24:36.273Z,97.90
2019-05-23T19:27:05.252Z,98.10
2019-05-23T19:29:34.091Z,97.60
2019-05-23T19:32:05.333Z,99.00
2019-05-23T19:34:34.289Z,99.20
2019-05-23T19:37:05.225Z,99.00
2019-05-23T19:39:34.713Z,99.60
2019-05-23T19:42:03.691Z,97.70
2019-05-23T19:44:32.109Z,97.50
2019-05-23T19:47:01.286Z,98.50
2019-05-23T19:49:30.503Z,98.60
2019-05-23T19:51:59.174Z,99.90
2019-05-23T19:54:27.895Z,99.90
2019-05-23T19:56:56.736Z,99.90
2019-05-23T19:59:25.183Z,99.90
2019-05-23T20:02:16.842Z,99.90
2019-05-23T20:04:53.631Z,99.90
2019-05-23T20:07:25.224Z,99.90
2019-05-23T20:09:57.280Z,99.90
2019-05-23T20:12:24.845Z,99.90
2019-05-23T20:14:53.347Z,99.90
2019-05-23T20:17:22.158Z,99.90
2019-05-23T20:19:50.878Z,99.90
2019-05-23T20:22:19.583Z,99.90
2019-05-23T20:24:48.149Z,99.90
2019-05-23T20:27:16.790Z,99.90
2019-05-23T20:29:45.230Z,99.90
2019-05-23T20:32:14.555Z,99.90
2019-05-23T20:34:43.090Z,99.90
2019-05-23T20:37:12.315Z,99.90
2019-05-23T20:39:40.698Z,99.90
2019-05-23T20:42:11.868Z,99.90
2019-05-23T20:44:39.442Z,99.90
2019-05-23T20:47:08.432Z,99.90
2019-05-23T20:49:37.007Z,99.90
2019-05-23T20:52:07.119Z,99.90
2019-05-23T20:54:35.945Z,99.90
2019-05-23T20:57:04.764Z,99.90
2019-05-23T20:59:33.487Z,99.90
2019-05-23T21:02:02.787Z,99.90
2019-05-23T21:04:31.911Z,99.90
2019-05-23T21:07:00.389Z,99.90
2019-05-23T21:09:28.904Z,99.90
2019-05-23T21:11:57.311Z,99.90
2019-05-23T21:14:25.924Z,99.90
2019-05-23T21:16:54.297Z,99.90
2019-05-23T21:19:22.879Z,99.90
2019-05-23T21:21:51.369Z,99.90
2019-05-23T21:24:20.243Z,99.90
2019-05-23T21:26:48.644Z,99.90
2019-05-23T21:29:17.018Z,99.90
2019-05-23T21:31:45.627Z,99.90
2019-05-23T21:34:14.112Z,99.90
2019-05-23T21:36:42.683Z,99.90
2019-05-23T21:39:12.292Z,99.90
2019-05-23T21:41:42.460Z,99.90
2019-05-23T21:44:10.905Z,99.90
2019-05-23T21:46:39.474Z,99.90
2019-05-23T21:49:07.868Z,99.90
2019-05-23T21:51:38.150Z,99.90
2019-05-23T21:54:06.758Z,99.90
2019-05-23T21:56:35.136Z,99.90
2019-05-23T21:59:03.816Z,99.90
2019-05-23T22:01:54.659Z,99.90
2019-05-23T22:04:28.193Z,99.90
2019-05-23T22:06:58.411Z,99.90
2019-05-23T22:09:28.826Z,99.90
2019-05-23T22:11:57.572Z,99.90
2019-05-23T22:14:26.017Z,99.90
2019-05-23T22:16:54.623Z,99.90
2019-05-23T22:19:24.304Z,99.90
2019-05-23T22:21:52.980Z,99.90
2019-05-23T22:24:21.600Z,99.90
2019-05-23T22:26:50.159Z,99.90
2019-05-23T22:29:18.739Z,99.90
2019-05-23T22:31:47.234Z,99.90
2019-05-23T22:34:41.181Z,99.90
2019-05-23T22:37:16.177Z,99.90
2019-05-23T22:39:44.706Z,99.90
2019-05-23T22:42:13.672Z,99.90
2019-05-23T22:44:42.414Z,99.90
2019-05-23T22:47:10.879Z,99.90
2019-05-23T22:49:39.470Z,99.90
2019-05-23T22:52:07.860Z,99.90
2019-05-23T22:54:36.338Z,99.90
2019-05-23T22:57:04.932Z,99.90
2019-05-23T22:59:33.509Z,99.90
2019-05-23T23:02:03.905Z,99.90
2019-05-23T23:04:32.301Z,99.90
2019-05-23T23:07:00.777Z,99.90
2019-05-23T23:09:29.246Z,99.90
2019-05-23T23:11:57.775Z,99.90
2019-05-23T23:14:26.430Z,99.90
2019-05-23T23:16:55.133Z,99.90
2019-05-23T23:19:23.514Z,99.90
2019-05-23T23:21:52.002Z,99.90
2019-05-23T23:24:20.668Z,99.90
2019-05-23T23:26:49.280Z,99.90
2019-05-23T23:29:17.672Z,99.90
2019-05-23T23:31:47.947Z,99.90
2019-05-23T23:34:16.617Z,99.90
2019-05-23T23:36:45.087Z,99.90
2019-05-23T23:39:13.454Z,99.90
2019-05-23T23:41:41.943Z,99.90
2019-05-23T23:44:10.957Z,99.90
2019-05-23T23:46:57.778Z,99.90
2019-05-23T23:49:44.790Z,99.90
2019-05-23T23:52:31.715Z,99.90
2019-05-23T23:55:18.569Z,99.90
2019-05-23T23:57:58.842Z,99.90
